createdAt,value
2023-01-19T00:02:05.585Z,4.48
2023-01-19T00:32:08.207Z,3.47
2023-01-19T00:35:20.723Z,3.67
2023-01-19T00:59:30.083Z,2.99
2023-01-19T01:09:29.366Z,2.69
2023-01-19T01:12:42.183Z,2.90
2023-01-19T01:16:04.631Z,2.70
2023-01-19T01:22:32.331Z,2.75
2023-01-19T01:25:36.633Z,2.73
2023-01-19T01:28:42.806Z,2.72
2023-01-19T01:38:50.949Z,2.76
2023-01-19T01:48:51.580Z,2.87
2023-01-19T01:55:20.131Z,2.84
2023-01-19T01:58:30.645Z,3.11
2023-01-19T02:17:59.697Z,3.34
2023-01-19T02:24:37.662Z,3.24
2023-01-19T02:27:44.409Z,3.16
2023-01-19T02:30:49.725Z,3.22
2023-01-19T02:33:53.556Z,3.31
2023-01-19T02:36:59.061Z,3.39
2023-01-19T02:43:36.682Z,3.40
2023-01-19T02:55:20.777Z,3.11
2023-01-19T03:07:36.867Z,3.72
2023-01-19T03:32:42.402Z,4.84
2023-01-19T04:09:19.999Z,5.11
2023-01-19T04:19:25.742Z,4.83
2023-01-19T05:45:49.182Z,5.21
2023-01-19T05:48:53.966Z,5.22
2023-01-19T05:55:26.934Z,5.54
2023-01-19T05:58:31.493Z,5.58
2023-01-19T06:04:17.257Z,5.57
2023-01-19T06:10:46.840Z,5.87
2023-01-19T06:48:22.351Z,6.91
2023-01-19T07:01:46.683Z,6.80
2023-01-19T07:11:38.057Z,7.51
2023-01-19T07:14:42.274Z,7.64
2023-01-19T07:17:46.243Z,7.75
2023-01-19T07:24:09.954Z,9.51
2023-01-19T07:27:36.787Z,7.33
2023-01-19T07:30:40.883Z,7.53
2023-01-19T07:33:44.680Z,7.50
2023-01-19T07:36:48.891Z,7.07
2023-01-19T07:39:56.205Z,7.09
2023-01-19T07:43:00.720Z,8.37
2023-01-19T07:46:05.010Z,7.31
2023-01-19T07:49:09.034Z,7.37
2023-01-19T07:52:12.910Z,7.28
2023-01-19T07:55:16.850Z,6.97
2023-01-19T07:58:20.877Z,6.61
2023-01-19T08:01:24.987Z,6.29
2023-01-19T08:04:32.451Z,5.83
2023-01-19T08:07:36.423Z,5.86
2023-01-19T08:10:41.275Z,6.49
2023-01-19T08:13:53.108Z,6.79
2023-01-19T08:16:57.517Z,6.42
2023-01-19T08:28:55.918Z,6.20
2023-01-19T08:32:00.436Z,5.80
2023-01-19T08:37:50.217Z,5.59
2023-01-19T08:40:54.042Z,5.25
2023-01-19T08:43:58.096Z,5.57
2023-01-19T08:47:02.266Z,5.54
2023-01-19T08:50:06.284Z,5.43
2023-01-19T08:53:11.443Z,5.35
2023-01-19T08:56:15.361Z,5.57
2023-01-19T08:59:19.511Z,5.52
2023-01-19T09:02:23.778Z,5.45
2023-01-19T09:05:31.821Z,5.34
2023-01-19T09:08:35.503Z,5.76
2023-01-19T09:11:39.633Z,5.29
2023-01-19T09:14:44.521Z,5.58
2023-01-19T09:17:48.612Z,5.33
2023-01-19T09:20:52.876Z,5.46
2023-01-19T09:23:59.231Z,5.54
2023-01-19T09:27:03.119Z,5.51
2023-01-19T09:30:07.055Z,5.52
2023-01-19T09:33:11.112Z,5.07
2023-01-19T09:36:15.445Z,5.29
2023-01-19T09:39:19.734Z,5.55
2023-01-19T09:42:23.668Z,5.72
2023-01-19T09:45:27.796Z,5.76
2023-01-19T09:48:32.054Z,5.62
2023-01-19T09:51:36.208Z,5.33
2023-01-19T09:54:39.934Z,5.42
2023-01-19T09:57:44.355Z,5.54
2023-01-19T10:00:49.722Z,5.14
2023-01-19T10:03:53.547Z,5.25
2023-01-19T10:06:57.262Z,5.45
2023-01-19T10:10:01.245Z,5.68
2023-01-19T10:13:05.202Z,5.76
2023-01-19T10:16:09.383Z,5.44
2023-01-19T10:19:13.689Z,5.00
2023-01-19T10:22:17.433Z,5.15
2023-01-19T10:25:22.118Z,5.35
2023-01-19T10:28:26.158Z,5.70
2023-01-19T10:31:33.448Z,5.37
2023-01-19T10:34:37.756Z,5.93
2023-01-19T10:37:43.685Z,5.69
2023-01-19T10:40:48.059Z,5.06
2023-01-19T10:43:51.927Z,4.99
2023-01-19T10:46:56.940Z,5.16
2023-01-19T10:50:01.177Z,5.32
2023-01-19T10:53:05.777Z,5.34
2023-01-19T10:56:11.391Z,5.19
2023-01-19T10:59:15.426Z,5.51
2023-01-19T11:02:19.693Z,5.50
2023-01-19T11:05:23.986Z,5.76
2023-01-19T11:08:33.169Z,5.53
2023-01-19T11:11:37.381Z,5.68
2023-01-19T11:14:41.842Z,5.85
2023-01-19T11:17:47.088Z,5.24
2023-01-19T11:20:51.131Z,5.78
2023-01-19T11:23:55.496Z,5.70
2023-01-19T11:26:59.492Z,5.63
2023-01-19T11:30:03.618Z,5.68
2023-01-19T11:33:07.299Z,5.72
2023-01-19T11:36:11.028Z,5.56
2023-01-19T11:39:14.773Z,5.68
2023-01-19T11:42:18.694Z,5.56
2023-01-19T11:45:22.719Z,5.72
2023-01-19T11:48:26.688Z,5.59
2023-01-19T11:51:30.652Z,5.77
2023-01-19T11:54:34.755Z,5.64
2023-01-19T11:57:38.765Z,5.68
2023-01-19T12:00:42.581Z,5.42
2023-01-19T12:03:47.732Z,5.14
2023-01-19T12:06:52.052Z,5.01
2023-01-19T12:09:56.208Z,4.82
2023-01-19T12:13:00.246Z,4.89
2023-01-19T12:16:04.130Z,4.58
2023-01-19T12:19:08.104Z,4.83
2023-01-19T12:22:12.224Z,4.48
2023-01-19T12:25:16.864Z,4.71
2023-01-19T12:28:21.032Z,4.30
2023-01-19T12:31:30.661Z,4.26
2023-01-19T12:38:10.641Z,4.60
2023-01-19T12:41:14.615Z,4.67
2023-01-19T12:44:22.283Z,4.55
2023-01-19T12:47:27.517Z,4.18
2023-01-19T12:50:35.430Z,4.21
2023-01-19T12:53:39.951Z,4.51
2023-01-19T12:56:44.304Z,4.26
2023-01-19T12:59:48.393Z,4.16
2023-01-19T13:02:52.788Z,4.38
2023-01-19T13:05:58.970Z,4.42
2023-01-19T13:09:03.232Z,4.73
2023-01-19T13:12:07.376Z,4.85
2023-01-19T13:15:11.217Z,4.67
2023-01-19T13:18:15.092Z,4.71
2023-01-19T13:21:19.399Z,4.93
2023-01-19T13:24:23.491Z,4.42
2023-01-19T13:27:27.521Z,4.54
2023-01-19T13:30:31.640Z,4.34
2023-01-19T13:33:35.473Z,4.47
2023-01-19T13:36:39.960Z,4.25
2023-01-19T13:39:44.220Z,4.75
2023-01-19T13:42:49.607Z,4.76
2023-01-19T13:45:53.750Z,4.41
2023-01-19T13:48:57.771Z,4.51
2023-01-19T13:52:01.769Z,6.39
2023-01-19T13:55:06.111Z,5.76
2023-01-19T13:58:10.264Z,4.82
2023-01-19T14:01:15.173Z,4.55
2023-01-19T14:04:20.563Z,4.53
2023-01-19T14:07:24.810Z,4.67
2023-01-19T14:10:33.290Z,5.02
2023-01-19T14:13:37.602Z,4.78
2023-01-19T14:16:41.564Z,4.81
2023-01-19T14:19:47.413Z,4.67
2023-01-19T14:22:51.227Z,4.69
2023-01-19T14:25:55.248Z,4.70
2023-01-19T14:28:59.367Z,5.05
2023-01-19T14:32:03.687Z,4.35
2023-01-19T14:35:08.275Z,4.50
2023-01-19T14:38:12.417Z,4.79
2023-01-19T14:41:16.482Z,4.63
2023-01-19T14:44:38.845Z,4.46
2023-01-19T14:47:44.099Z,4.65
2023-01-19T14:51:02.001Z,4.79
2023-01-19T14:54:06.552Z,4.65
2023-01-19T14:57:10.576Z,4.58
2023-01-19T15:00:16.573Z,4.59
2023-01-19T15:03:24.967Z,4.36
2023-01-19T15:06:31.220Z,4.25
2023-01-19T15:09:35.831Z,4.27
2023-01-19T15:12:40.868Z,4.43
2023-01-19T15:19:06.758Z,4.17
2023-01-19T15:22:10.707Z,4.18
2023-01-19T15:25:24.396Z,3.97
2023-01-19T15:28:28.221Z,4.06
2023-01-19T15:31:33.290Z,3.97
2023-01-19T15:34:37.612Z,3.66
2023-01-19T15:37:41.376Z,3.40
2023-01-19T15:40:45.151Z,3.42
2023-01-19T15:43:49.948Z,3.59
2023-01-19T15:46:59.862Z,3.42
2023-01-19T15:50:04.127Z,3.49
2023-01-19T15:53:09.064Z,3.50
2023-01-19T15:56:13.419Z,3.69
2023-01-19T15:59:17.356Z,3.74
2023-01-19T16:02:21.385Z,4.18
2023-01-19T16:08:49.849Z,3.92
2023-01-19T16:11:55.344Z,3.94
2023-01-19T16:14:59.403Z,3.96
2023-01-19T16:18:03.423Z,4.15
2023-01-19T16:21:07.155Z,4.63
2023-01-19T16:24:10.917Z,4.60
2023-01-19T16:27:14.944Z,5.33
2023-01-19T16:30:18.753Z,5.77
2023-01-19T16:33:22.961Z,6.21
2023-01-19T16:36:26.815Z,6.25
2023-01-19T16:39:30.632Z,6.24
2023-01-19T16:42:34.722Z,6.10
2023-01-19T16:45:38.550Z,28.88
2023-01-19T16:48:42.404Z,19.12
2023-01-19T16:51:46.263Z,14.69
2023-01-19T16:54:50.237Z,17.65
2023-01-19T16:57:54.039Z,8.60
2023-01-19T17:04:28.961Z,11.65
2023-01-19T17:14:28.853Z,10.24
2023-01-19T19:22:51.892Z,7.94
2023-01-19T19:36:30.206Z,15.26
2023-01-19T19:43:17.395Z,13.96
2023-01-19T19:53:36.119Z,10.80
2023-01-19T19:56:47.964Z,11.85
2023-01-19T20:03:16.325Z,14.62
2023-01-19T20:06:20.571Z,15.28
2023-01-19T20:09:27.871Z,12.31
2023-01-19T20:12:33.325Z,8.41
2023-01-19T20:22:02.290Z,6.89
2023-01-19T20:25:07.013Z,8.48
2023-01-19T20:28:13.678Z,8.98
2023-01-19T20:31:19.146Z,7.29
2023-01-19T20:34:24.499Z,8.13
2023-01-19T20:37:30.793Z,9.02
2023-01-19T20:40:35.278Z,10.57
2023-01-19T20:43:40.416Z,11.18
2023-01-19T20:46:46.205Z,13.54
2023-01-19T20:49:54.700Z,12.14
2023-01-19T20:53:09.419Z,11.05
2023-01-19T20:56:18.044Z,13.05
2023-01-19T20:59:22.334Z,12.56
2023-01-19T21:02:28.491Z,10.77
2023-01-19T21:05:32.263Z,8.77
2023-01-19T21:08:36.401Z,8.25
2023-01-19T21:11:40.394Z,7.88
2023-01-19T21:14:44.407Z,7.52
2023-01-19T21:17:48.412Z,7.42
2023-01-19T21:20:52.152Z,7.90
2023-01-19T21:23:57.020Z,7.60
2023-01-19T21:27:01.054Z,7.15
2023-01-19T21:30:06.430Z,6.94
2023-01-19T21:33:10.937Z,6.91
2023-01-19T21:36:14.750Z,6.58
2023-01-19T21:39:18.751Z,6.85
2023-01-19T21:42:22.723Z,6.59
2023-01-19T21:45:26.922Z,6.70
2023-01-19T21:48:30.864Z,5.67
2023-01-19T21:51:36.265Z,5.87
2023-01-19T21:54:39.876Z,5.56
2023-01-19T21:57:43.842Z,5.30
2023-01-19T22:00:47.970Z,5.70
2023-01-19T22:03:51.896Z,5.27
2023-01-19T22:06:55.588Z,4.82
2023-01-19T22:10:01.948Z,4.63
2023-01-19T22:13:06.110Z,4.34
2023-01-19T22:16:11.026Z,4.76
2023-01-19T22:19:14.938Z,4.29
2023-01-19T22:22:18.565Z,4.55
2023-01-19T22:25:23.839Z,4.55
2023-01-19T22:28:27.812Z,4.47
2023-01-19T22:31:32.097Z,4.87
2023-01-19T22:34:36.255Z,4.75
2023-01-19T22:37:43.210Z,5.43
2023-01-19T22:40:47.227Z,5.93
2023-01-19T22:43:58.063Z,7.02
2023-01-19T22:47:02.278Z,6.87
2023-01-19T22:50:06.083Z,7.16
2023-01-19T22:53:11.244Z,8.32
2023-01-19T22:56:15.334Z,7.74
2023-01-19T22:59:19.095Z,7.86
2023-01-19T23:02:23.094Z,7.80
2023-01-19T23:05:26.805Z,7.94
2023-01-19T23:08:30.925Z,7.84
2023-01-19T23:11:35.958Z,8.90
2023-01-19T23:14:41.940Z,8.37
2023-01-19T23:17:46.024Z,8.84
2023-01-19T23:20:50.027Z,8.92
2023-01-19T23:23:54.132Z,8.83
2023-01-19T23:26:58.082Z,8.96
2023-01-19T23:30:01.823Z,9.36
2023-01-19T23:33:05.519Z,9.69
2023-01-19T23:36:09.478Z,9.59
2023-01-19T23:39:13.531Z,10.18
2023-01-19T23:42:17.453Z,10.25
2023-01-19T23:45:21.242Z,10.06
2023-01-19T23:48:25.181Z,9.42
2023-01-19T23:51:29.243Z,9.98
2023-01-19T23:54:33.042Z,9.19
2023-01-19T23:57:37.063Z,9.51
